Time;durP1;ratioP1;P1;durP2;ratioP2;P2;SDS_P1;SDS_P2;PMS_P1;PMS_P2;Temp;Humidity;BMP_temperature;BMP_pressure;BME280_temperature;BME280_humidity;BME280_pressure;Samples;Min_cycle;Max_cycle;Signal;HPM_P1;HPM_P2
2023/02/13 00:00:26;;;;;;;8.63;1.92;;;8.10;99.90;;;;;;4418287;32;20514;-66
2023/02/13 00:02:52;;;;;;;2.60;1.33;;;8.10;99.90;;;;;;4431899;32;20069;-66
2023/02/13 00:05:18;;;;;;;1.17;0.90;;;8.10;99.90;;;;;;4434888;32;20491;-66
2023/02/13 00:07:43;;;;;;;3.00;1.35;;;8.20;99.90;;;;;;4434847;32;20104;-65
2023/02/13 00:10:09;;;;;;;0.93;0.93;;;8.10;99.90;;;;;;4418536;32;20072;-65
2023/02/13 00:12:35;;;;;;;16.62;1.75;;;8.10;99.90;;;;;;4428719;32;20545;-65
2023/02/13 00:15:00;;;;;;;11.75;1.17;;;8.10;99.90;;;;;;4430813;32;20097;-65
2023/02/13 00:17:26;;;;;;;0.85;0.85;;;8.20;99.90;;;;;;4430545;32;20570;-69
2023/02/13 00:19:51;;;;;;;0.57;0.57;;;8.10;99.90;;;;;;4428100;32;20062;-66
2023/02/13 00:22:17;;;;;;;0.60;0.60;;;8.10;99.90;;;;;;4429643;32;20189;-66
2023/02/13 00:24:42;;;;;;;0.70;0.70;;;8.20;99.90;;;;;;4431344;32;20418;-66
2023/02/13 00:27:08;;;;;;;0.47;0.47;;;8.20;99.90;;;;;;4428117;32;20116;-66
2023/02/13 00:29:33;;;;;;;6.03;1.30;;;8.10;99.90;;;;;;4428309;32;20148;-66
2023/02/13 00:32:00;;;;;;;1.85;0.85;;;8.10;99.90;;;;;;4433824;32;20120;-65
2023/02/13 00:34:26;;;;;;;9.55;0.68;;;8.10;99.90;;;;;;4433412;32;20089;-66
2023/02/13 00:36:51;;;;;;;0.60;0.60;;;8.10;99.90;;;;;;4432560;32;20093;-66
2023/02/13 00:39:17;;;;;;;1.55;0.75;;;8.10;99.90;;;;;;4430622;32;20129;-66
2023/02/13 00:41:42;;;;;;;1.55;1.02;;;8.10;99.90;;;;;;4434869;32;20068;-66
2023/02/13 00:44:09;;;;;;;0.45;0.45;;;8.10;99.90;;;;;;4433296;32;20101;-66
2023/02/13 00:46:35;;;;;;;4.20;1.00;;;8.10;99.90;;;;;;4433815;32;20102;-65
2023/02/13 00:49:00;;;;;;;7.37;0.80;;;8.20;99.90;;;;;;4432638;32;20084;-66
2023/02/13 00:51:27;;;;;;;0.70;0.70;;;8.10;99.90;;;;;;4431474;32;20085;-66
2023/02/13 00:53:52;;;;;;;1.30;0.65;;;8.20;99.90;;;;;;4415680;32;20066;-67
2023/02/13 00:56:18;;;;;;;0.60;0.60;;;8.20;99.90;;;;;;4415846;32;20086;-67
2023/02/13 00:58:44;;;;;;;0.65;0.65;;;8.20;99.90;;;;;;4431668;32;20156;-67
2023/02/13 01:01:09;;;;;;;0.30;0.30;;;8.20;99.90;;;;;;4434828;32;20138;-66
2023/02/13 01:03:35;;;;;;;0.30;0.30;;;8.10;99.90;;;;;;4435283;32;20093;-66
2023/02/13 01:06:00;;;;;;;0.30;0.30;;;8.10;99.90;;;;;;4435090;32;20139;-65
2023/02/13 01:08:27;;;;;;;0.40;0.40;;;8.00;99.90;;;;;;4433672;32;20753;-66
2023/02/13 01:10:53;;;;;;;0.37;0.37;;;8.00;99.90;;;;;;4431794;32;20093;-66
2023/02/13 01:13:18;;;;;;;0.60;0.60;;;8.00;99.90;;;;;;4432093;32;20501;-66
2023/02/13 01:15:45;;;;;;;0.40;0.40;;;8.10;99.90;;;;;;4433494;32;20073;-66
2023/02/13 01:18:14;;;;;;;0.55;0.55;;;8.00;99.90;;;;;;4430632;32;20088;-66
2023/02/13 01:20:41;;;;;;;0.30;0.30;;;8.00;99.90;;;;;;4431672;32;20076;-66
2023/02/13 01:23:06;;;;;;;0.40;0.40;;;8.00;99.90;;;;;;4430979;32;20077;-66
2023/02/13 01:25:32;;;;;;;0.40;0.40;;;8.00;99.90;;;;;;4430710;32;20402;-66
2023/02/13 01:27:57;;;;;;;1.98;0.88;;;8.00;99.90;;;;;;4436947;32;20184;-66
2023/02/13 01:30:23;;;;;;;0.30;0.30;;;8.10;99.90;;;;;;4431413;32;20077;-66
2023/02/13 01:32:48;;;;;;;0.20;0.20;;;8.00;99.90;;;;;;4430839;32;20093;-67
2023/02/13 01:35:15;;;;;;;0.30;0.30;;;8.00;99.90;;;;;;4420151;32;20112;-67
2023/02/13 01:37:41;;;;;;;0.40;0.40;;;8.00;99.90;;;;;;4432310;32;20115;-66
2023/02/13 01:40:09;;;;;;;0.30;0.30;;;8.00;99.90;;;;;;4415388;32;20068;-66
2023/02/13 01:42:35;;;;;;;0.50;0.50;;;7.90;99.90;;;;;;4415973;32;20125;-68
2023/02/13 01:45:03;;;;;;;0.30;0.30;;;7.90;99.90;;;;;;4430602;32;20193;-66
2023/02/13 01:47:48;;;;;;;0.50;0.50;;;7.90;99.90;;;;;;4435527;32;20594;-67
2023/02/13 01:50:19;;;;;;;0.70;0.70;;;7.90;99.90;;;;;;4416346;32;20209;-66
2023/02/13 01:52:50;;;;;;;0.30;0.30;;;7.90;99.90;;;;;;4419819;32;20077;-66
2023/02/13 01:55:15;;;;;;;;;;;7.90;99.90;;;;;;4417495;32;20116;-66
2023/02/13 01:57:44;;;;;;;0.30;0.30;;;7.90;99.90;;;;;;4430937;32;19964;-67
2023/02/13 02:00:13;;;;;;;1.50;1.37;;;7.90;99.90;;;;;;4433547;32;20197;-66
2023/02/13 02:02:43;;;;;;;0.28;0.28;;;7.90;99.90;;;;;;4435614;32;20681;-67
2023/02/13 02:05:10;;;;;;;0.47;0.47;;;7.90;99.90;;;;;;4432852;32;20127;-66
2023/02/13 02:07:38;;;;;;;0.30;0.30;;;7.90;99.90;;;;;;4420038;32;20946;-65
2023/02/13 02:10:09;;;;;;;0.30;0.30;;;7.90;99.90;;;;;;4414626;32;20587;-65
2023/02/13 02:12:41;;;;;;;;;;;7.90;99.90;;;;;;4433437;32;20104;-66
2023/02/13 02:15:07;;;;;;;0.40;0.40;;;7.90;99.90;;;;;;4418115;32;20229;-65
2023/02/13 02:17:32;;;;;;;0.65;0.65;;;7.80;99.90;;;;;;4433142;32;20092;-67
2023/02/13 02:20:30;;;;;;;1.00;0.55;;;7.80;99.90;;;;;;4414712;32;20092;-66
2023/02/13 02:23:07;;;;;;;0.50;0.50;;;7.80;99.90;;;;;;4432616;32;20069;-66
2023/02/13 02:26:07;;;;;;;0.30;0.30;;;7.80;99.90;;;;;;4432234;32;20091;-66
2023/02/13 02:28:58;;;;;;;0.30;0.30;;;7.80;99.90;;;;;;4420662;32;20097;-66
2023/02/13 02:31:38;;;;;;;;;;;7.70;99.90;;;;;;4433216;32;20143;-66
2023/02/13 02:34:36;;;;;;;0.30;0.30;;;7.70;99.90;;;;;;4434195;32;19959;-66
2023/02/13 02:37:23;;;;;;;0.62;0.60;;;7.70;99.90;;;;;;4425641;32;20207;-66
2023/02/13 02:40:28;;;;;;;11.52;1.62;;;7.70;99.90;;;;;;4430131;32;20089;-66
2023/02/13 02:43:04;;;;;;;0.52;0.52;;;7.70;99.90;;;;;;4413992;32;20081;-67
2023/02/13 02:45:55;;;;;;;0.37;0.37;;;7.70;99.90;;;;;;4429856;32;20052;-67
2023/02/13 02:51:44;;;;;;;0.57;0.57;;;7.70;99.90;;;;;;4416127;32;20187;-66
2023/02/13 02:55:23;;;;;;;0.30;0.30;;;7.80;99.90;;;;;;4417712;32;20089;-66
2023/02/13 02:57:15;;;;;;;0.55;0.55;;;7.70;99.90;;;;;;4423008;32;20061;-67
2023/02/13 03:06:28;;;;;;;0.40;0.40;;;7.60;99.90;;;;;;4423675;32;20175;-66
2023/02/13 03:13:17;;;;;;;3.20;0.55;;;7.60;99.90;;;;;;4422282;32;20065;-67
2023/02/13 03:13:32;;;;;;;0.75;0.75;;;7.60;99.90;;;;;;4414498;32;20169;-67
2023/02/13 03:13:48;;;;;;;0.50;0.50;;;7.60;99.90;;;;;;4417257;32;20558;-68
2023/02/13 03:22:22;;;;;;;0.60;0.60;;;7.50;99.90;;;;;;4417605;32;20105;-66
2023/02/13 03:25:07;;;;;;;1.95;1.02;;;7.60;99.90;;;;;;4414510;32;20151;-66
2023/02/13 03:30:11;;;;;;;0.50;0.50;;;7.60;99.90;;;;;;4414659;32;20436;-66
2023/02/13 03:30:46;;;;;;;0.50;0.50;;;7.50;99.90;;;;;;4419028;32;20097;-66
2023/02/13 03:33:39;;;;;;;0.80;0.73;;;7.50;99.90;;;;;;4417276;32;20077;-66
2023/02/13 03:38:16;;;;;;;0.47;0.47;;;7.60;99.90;;;;;;4416043;32;20416;-66
2023/02/13 03:39:26;;;;;;;0.98;0.82;;;7.60;99.90;;;;;;4416799;32;20084;-66
2023/02/13 03:41:59;;;;;;;1.48;0.90;;;7.60;99.90;;;;;;4416827;32;20472;-66
2023/02/13 03:44:34;;;;;;;0.30;0.30;;;7.60;99.90;;;;;;4428689;32;20233;-66
2023/02/13 03:47:04;;;;;;;1.20;1.08;;;7.60;99.90;;;;;;4430181;32;20069;-65
2023/02/13 03:50:08;;;;;;;0.50;0.50;;;7.60;99.90;;;;;;4413074;32;20089;-66
2023/02/13 03:52:36;;;;;;;1.70;0.75;;;7.60;99.90;;;;;;4408865;32;20129;-66
2023/02/13 03:59:28;;;;;;;1.95;1.10;;;7.60;99.90;;;;;;4410836;32;20089;-66
2023/02/13 04:00:49;;;;;;;2.47;1.02;;;7.50;99.90;;;;;;4407740;32;20082;-68
2023/02/13 04:03:22;;;;;;;0.70;0.70;;;7.50;99.90;;;;;;4431148;32;20528;-66
2023/02/13 04:05:55;;;;;;;0.88;0.88;;;7.50;99.90;;;;;;4432031;32;20056;-66
2023/02/13 04:08:20;;;;;;;0.52;0.52;;;7.60;99.90;;;;;;4432692;32;20548;-66
2023/02/13 04:11:02;;;;;;;1.75;1.00;;;7.60;99.90;;;;;;4432564;32;20168;-67
2023/02/13 04:13:33;;;;;;;0.50;0.50;;;7.50;99.90;;;;;;4416910;32;20628;-67
2023/02/13 04:16:11;;;;;;;1.02;0.50;;;7.50;99.90;;;;;;4430976;32;20093;-66
2023/02/13 04:18:38;;;;;;;1.52;1.00;;;7.60;99.90;;;;;;4432424;32;20101;-67
2023/02/13 04:21:05;;;;;;;1.25;0.80;;;7.50;99.90;;;;;;4431287;32;20085;-66
2023/02/13 04:23:30;;;;;;;1.02;0.90;;;7.40;99.90;;;;;;4414291;32;20097;-66
2023/02/13 04:25:58;;;;;;;1.67;1.10;;;7.40;99.90;;;;;;4434516;32;20145;-66
2023/02/13 04:28:23;;;;;;;0.40;0.40;;;7.40;99.90;;;;;;4436234;32;20084;-66
2023/02/13 04:30:49;;;;;;;0.60;0.60;;;7.40;99.90;;;;;;4431889;32;20073;-66
2023/02/13 04:33:15;;;;;;;0.73;0.65;;;7.50;99.90;;;;;;4433359;32;20061;-66
2023/02/13 04:35:40;;;;;;;0.98;0.77;;;7.50;99.90;;;;;;4431114;32;20069;-67
2023/02/13 04:38:06;;;;;;;4.22;1.23;;;7.50;99.90;;;;;;4419349;32;20069;-67
2023/02/13 04:40:31;;;;;;;0.50;0.50;;;7.40;99.90;;;;;;4429504;32;20093;-66
2023/02/13 04:42:57;;;;;;;0.43;0.43;;;7.40;99.90;;;;;;4415853;32;20073;-66
2023/02/13 04:45:23;;;;;;;5.50;0.95;;;7.40;99.90;;;;;;4416201;32;20143;-66
2023/02/13 04:47:51;;;;;;;4.47;1.05;;;7.40;99.90;;;;;;4443885;32;20131;-66
2023/02/13 04:50:16;;;;;;;1.80;1.10;;;7.40;99.90;;;;;;4414260;32;20154;-67
2023/02/13 04:52:42;;;;;;;0.43;0.43;;;7.30;99.90;;;;;;4431215;32;20147;-66
2023/02/13 04:55:07;;;;;;;0.70;0.70;;;7.40;99.90;;;;;;4429491;32;20143;-66
2023/02/13 04:57:33;;;;;;;0.50;0.50;;;7.40;99.90;;;;;;4434390;32;20088;-66
2023/02/13 04:59:58;;;;;;;0.50;0.50;;;7.50;99.90;;;;;;4417740;32;20081;-66
2023/02/13 05:02:24;;;;;;;0.60;0.60;;;7.50;99.90;;;;;;4432749;32;20516;-67
2023/02/13 05:04:49;;;;;;;0.40;0.40;;;7.50;99.90;;;;;;4433330;32;20081;-66
2023/02/13 05:07:15;;;;;;;0.47;0.47;;;7.50;99.90;;;;;;4433857;32;20135;-66
2023/02/13 05:09:40;;;;;;;0.50;0.50;;;7.40;99.90;;;;;;4429273;32;20196;-66
2023/02/13 05:12:06;;;;;;;0.50;0.50;;;7.40;99.90;;;;;;4433621;32;20134;-66
2023/02/13 05:14:32;;;;;;;0.80;0.80;;;7.40;99.90;;;;;;4429882;32;20120;-67
2023/02/13 05:16:58;;;;;;;0.85;0.75;;;7.40;99.90;;;;;;4431599;32;20575;-66
2023/02/13 05:19:23;;;;;;;1.25;0.60;;;7.40;99.90;;;;;;4428142;32;20393;-66
2023/02/13 05:23:21;;;;;;;0.73;0.73;;;7.40;99.90;;;;;;4426367;32;20068;-66
2023/02/13 05:24:34;;;;;;;0.40;0.40;;;7.40;99.90;;;;;;4411984;32;20352;-66
2023/02/13 05:26:59;;;;;;;2.40;1.20;;;7.50;99.90;;;;;;4432830;32;20077;-67
2023/02/13 05:29:25;;;;;;;0.62;0.62;;;7.50;99.90;;;;;;4434165;32;20102;-66
2023/02/13 05:31:53;;;;;;;13.15;1.15;;;7.40;99.90;;;;;;4435992;32;20547;-67
2023/02/13 05:34:20;;;;;;;0.40;0.40;;;7.50;99.90;;;;;;4437405;32;20084;-69
2023/02/13 05:36:46;;;;;;;0.98;0.93;;;7.50;99.90;;;;;;4433034;32;20065;-67
2023/02/13 05:39:12;;;;;;;0.50;0.50;;;7.40;99.90;;;;;;4418086;32;20484;-67
2023/02/13 05:41:38;;;;;;;1.35;0.90;;;7.50;99.90;;;;;;4408236;32;20097;-67
2023/02/13 05:44:03;;;;;;;1.70;0.82;;;7.50;99.90;;;;;;4429795;32;20134;-66
2023/02/13 05:46:29;;;;;;;0.50;0.50;;;7.50;99.90;;;;;;4434868;32;20927;-67
2023/02/13 05:48:54;;;;;;;0.50;0.50;;;7.50;99.90;;;;;;4419740;32;20061;-66
2023/02/13 05:51:20;;;;;;;0.55;0.55;;;7.50;99.90;;;;;;4434209;32;20096;-66
2023/02/13 05:53:45;;;;;;;0.90;0.52;;;7.50;99.90;;;;;;4432439;32;20064;-67
2023/02/13 05:56:11;;;;;;;0.40;0.40;;;7.50;99.90;;;;;;4434432;32;20061;-66
2023/02/13 05:58:36;;;;;;;0.60;0.60;;;7.50;99.90;;;;;;4437075;32;20112;-66
2023/02/13 06:01:02;;;;;;;0.68;0.68;;;7.40;99.90;;;;;;4415094;32;20110;-66
2023/02/13 06:03:29;;;;;;;0.37;0.37;;;7.50;99.90;;;;;;4413259;32;20069;-66
2023/02/13 06:05:55;;;;;;;0.30;0.30;;;7.40;99.90;;;;;;4430024;32;20092;-65
2023/02/13 06:08:22;;;;;;;2.00;1.12;;;7.40;99.90;;;;;;4404712;32;20069;-66
2023/02/13 06:10:47;;;;;;;0.40;0.40;;;7.40;99.90;;;;;;4426644;32;20668;-67
2023/02/13 06:13:13;;;;;;;0.50;0.50;;;7.40;99.90;;;;;;4429809;32;20085;-67
2023/02/13 06:15:39;;;;;;;0.50;0.50;;;7.40;99.90;;;;;;4431147;32;20536;-66
2023/02/13 06:18:05;;;;;;;0.30;0.30;;;7.40;99.90;;;;;;4415268;32;20705;-66
2023/02/13 06:20:30;;;;;;;0.50;0.50;;;7.40;99.90;;;;;;4427177;32;20085;-65
2023/02/13 06:22:56;;;;;;;0.30;0.30;;;7.40;99.90;;;;;;4430465;32;20088;-66
2023/02/13 06:25:22;;;;;;;0.47;0.47;;;7.40;99.90;;;;;;4433410;32;20077;-65
2023/02/13 06:27:49;;;;;;;0.30;0.30;;;7.50;99.90;;;;;;4401424;32;20564;-66
2023/02/13 06:30:17;;;;;;;0.50;0.50;;;7.40;99.90;;;;;;4400748;32;20060;-65
2023/02/13 06:32:42;;;;;;;0.50;0.50;;;7.50;99.90;;;;;;4406339;32;20081;-65
2023/02/13 06:35:08;;;;;;;0.45;0.45;;;7.50;99.90;;;;;;4423133;32;20142;-66
2023/02/13 06:37:34;;;;;;;0.80;0.80;;;7.50;99.90;;;;;;4420417;32;20142;-68
2023/02/13 06:40:03;;;;;;;1.02;0.60;;;7.40;99.90;;;;;;4422943;32;20588;-66
2023/02/13 06:42:28;;;;;;;0.50;0.50;;;7.50;99.90;;;;;;4425459;32;20092;-69
2023/02/13 06:44:54;;;;;;;0.40;0.40;;;7.50;99.90;;;;;;4409578;32;20149;-68
2023/02/13 06:47:19;;;;;;;0.45;0.45;;;7.50;99.90;;;;;;4426366;32;20320;-67
2023/02/13 06:49:46;;;;;;;2.33;0.70;;;7.50;99.90;;;;;;4416191;32;20088;-69
2023/02/13 06:52:12;;;;;;;0.30;0.30;;;7.50;99.90;;;;;;4406129;32;20885;-67
2023/02/13 06:54:37;;;;;;;0.50;0.50;;;7.50;99.90;;;;;;4394500;32;20108;-65
2023/02/13 06:57:03;;;;;;;0.45;0.45;;;7.50;99.90;;;;;;4397532;32;20116;-68
2023/02/13 06:59:29;;;;;;;0.30;0.30;;;7.50;99.90;;;;;;4400081;32;20108;-66
2023/02/13 07:01:54;;;;;;;0.40;0.40;;;7.50;99.90;;;;;;4384229;32;20738;-66
2023/02/13 07:04:20;;;;;;;0.47;0.47;;;7.50;99.90;;;;;;4377607;32;20113;-66
2023/02/13 07:06:45;;;;;;;0.65;0.60;;;7.50;99.90;;;;;;4392880;32;20937;-66
2023/02/13 07:09:12;;;;;;;0.47;0.47;;;7.50;99.90;;;;;;4397703;32;20088;-67
2023/02/13 07:11:38;;;;;;;1.58;0.90;;;7.50;99.90;;;;;;4396798;32;20117;-67
2023/02/13 07:14:05;;;;;;;0.50;0.50;;;7.50;99.90;;;;;;4397987;32;20101;-67
2023/02/13 07:16:31;;;;;;;4.28;0.80;;;7.50;99.90;;;;;;4393087;32;20089;-67
2023/02/13 07:18:56;;;;;;;0.70;0.70;;;7.50;99.90;;;;;;4396175;32;20164;-66
2023/02/13 07:21:22;;;;;;;0.73;0.60;;;7.50;99.90;;;;;;4391814;32;20099;-66
2023/02/13 07:23:47;;;;;;;0.68;0.68;;;7.50;99.90;;;;;;4395284;32;20131;-66
2023/02/13 07:26:13;;;;;;;1.37;0.93;;;7.50;99.90;;;;;;4393473;32;20109;-65
2023/02/13 07:28:39;;;;;;;0.55;0.55;;;7.50;99.90;;;;;;4397465;32;20076;-66
2023/02/13 07:31:05;;;;;;;0.88;0.88;;;7.50;99.90;;;;;;4392521;32;20105;-66
2023/02/13 07:33:34;;;;;;;1.00;0.88;;;7.50;99.90;;;;;;4394890;32;20097;-66
2023/02/13 07:36:02;;;;;;;0.60;0.60;;;7.60;99.90;;;;;;4391496;32;20104;-67
2023/02/13 07:38:28;;;;;;;2.28;0.88;;;7.60;99.90;;;;;;4394330;32;20096;-66
2023/02/13 07:40:57;;;;;;;0.55;0.55;;;7.60;99.90;;;;;;4394805;32;20111;-66
2023/02/13 07:43:23;;;;;;;0.80;0.80;;;7.60;99.90;;;;;;4373343;32;20765;-65
2023/02/13 07:45:49;;;;;;;0.60;0.60;;;7.60;99.90;;;;;;4398567;32;20114;-66
2023/02/13 07:48:14;;;;;;;10.45;0.70;;;7.60;99.90;;;;;;4395954;32;20097;-65
2023/02/13 07:50:40;;;;;;;1.02;0.73;;;7.60;99.90;;;;;;4396209;32;20101;-66
2023/02/13 07:53:05;;;;;;;0.70;0.70;;;7.60;99.90;;;;;;4388894;32;20708;-66
2023/02/13 07:55:31;;;;;;;1.52;0.90;;;7.60;99.90;;;;;;4399380;32;20536;-67
2023/02/13 07:57:59;;;;;;;0.50;0.50;;;7.60;99.90;;;;;;4395695;32;20132;-66
2023/02/13 08:00:24;;;;;;;0.60;0.60;;;7.60;99.90;;;;;;4387368;32;21459;-66
2023/02/13 08:02:50;;;;;;;0.68;0.68;;;7.60;99.90;;;;;;4403939;32;20098;-67
2023/02/13 08:05:15;;;;;;;0.60;0.60;;;7.60;99.90;;;;;;4393861;32;20195;-67
2023/02/13 08:07:41;;;;;;;0.88;0.88;;;7.50;99.90;;;;;;4385944;32;20125;-66
2023/02/13 08:12:10;;;;;;;0.70;0.70;;;7.60;99.90;;;;;;4383281;32;20089;-65
2023/02/13 08:12:56;;;;;;;3.45;0.88;;;7.60;99.90;;;;;;4381729;32;20094;-65
2023/02/13 08:15:22;;;;;;;0.65;0.65;;;7.60;99.90;;;;;;4394043;32;20167;-66
2023/02/13 08:17:48;;;;;;;0.50;0.50;;;7.60;99.90;;;;;;4392744;32;20116;-68
2023/02/13 08:20:13;;;;;;;0.40;0.40;;;7.70;99.90;;;;;;4390622;32;20568;-66
2023/02/13 08:22:39;;;;;;;0.50;0.50;;;7.60;99.90;;;;;;4391047;32;20887;-66
2023/02/13 08:25:06;;;;;;;4.47;0.62;;;7.70;99.90;;;;;;4371002;32;20801;-66
2023/02/13 08:27:32;;;;;;;0.85;0.55;;;7.70;99.90;;;;;;4389949;32;20084;-67
2023/02/13 08:29:58;;;;;;;0.80;0.80;;;7.70;99.90;;;;;;4362736;32;20918;-66
2023/02/13 08:32:24;;;;;;;0.30;0.30;;;7.70;99.90;;;;;;4382545;32;20094;-67
2023/02/13 08:34:50;;;;;;;1.23;1.00;;;7.70;99.90;;;;;;4393571;32;21484;-67
2023/02/13 08:37:16;;;;;;;0.60;0.60;;;7.70;99.90;;;;;;4403491;32;20092;-66
2023/02/13 08:39:42;;;;;;;0.45;0.45;;;7.70;99.90;;;;;;4397914;32;20451;-67
2023/02/13 08:42:07;;;;;;;1.70;0.60;;;7.70;99.90;;;;;;4404950;32;20110;-66
2023/02/13 08:44:33;;;;;;;0.62;0.62;;;7.70;99.90;;;;;;4405135;32;20113;-68
2023/02/13 08:47:02;;;;;;;0.90;0.55;;;7.70;99.90;;;;;;4378847;32;20200;-64
2023/02/13 08:49:28;;;;;;;0.40;0.40;;;7.70;99.90;;;;;;4386237;32;20966;-65
2023/02/13 08:51:54;;;;;;;0.37;0.37;;;7.80;99.90;;;;;;4359726;32;20557;-64
2023/02/13 08:54:19;;;;;;;0.60;0.60;;;7.70;99.90;;;;;;4376326;32;20872;-65
2023/02/13 08:56:45;;;;;;;1.05;0.70;;;7.80;99.90;;;;;;4387011;32;20140;-66
2023/02/13 08:59:10;;;;;;;0.80;0.80;;;7.80;99.90;;;;;;4387462;32;20104;-65
2023/02/13 09:01:36;;;;;;;0.80;0.60;;;7.80;99.90;;;;;;4377956;32;20152;-65
2023/02/13 09:04:01;;;;;;;1.83;0.70;;;7.90;99.90;;;;;;4388086;32;21777;-65
2023/02/13 09:06:27;;;;;;;0.30;0.30;;;7.90;99.90;;;;;;4401623;32;20449;-65
2023/02/13 09:08:52;;;;;;;2.08;1.05;;;7.90;99.90;;;;;;4399653;32;20163;-64
2023/02/13 09:11:21;;;;;;;1.02;0.52;;;7.90;99.90;;;;;;4401855;32;20101;-65
2023/02/13 09:13:47;;;;;;;0.77;0.77;;;7.90;99.90;;;;;;4396261;32;20077;-64
2023/02/13 09:16:12;;;;;;;0.88;0.88;;;7.90;99.90;;;;;;4366678;32;20105;-66
2023/02/13 09:18:38;;;;;;;0.30;0.30;;;8.00;99.90;;;;;;4374109;32;20104;-64
2023/02/13 09:21:06;;;;;;;0.85;0.80;;;8.00;99.90;;;;;;4383068;32;20093;-66
2023/02/13 09:23:34;;;;;;;0.55;0.55;;;8.00;99.90;;;;;;4377503;32;20780;-65
2023/02/13 09:26:01;;;;;;;0.62;0.55;;;7.90;99.90;;;;;;4387518;32;23329;-65
2023/02/13 09:28:28;;;;;;;2.20;0.93;;;8.00;99.90;;;;;;4374991;32;20167;-70
2023/02/13 09:30:54;;;;;;;2.83;0.73;;;8.00;99.90;;;;;;4378721;32;21268;-65
2023/02/13 09:33:19;;;;;;;3.47;1.65;;;8.00;99.90;;;;;;4387447;32;20117;-65
2023/02/13 09:35:44;;;;;;;1.10;0.77;;;8.00;99.90;;;;;;4394803;32;20093;-66
2023/02/13 09:38:11;;;;;;;4.37;0.88;;;8.10;99.90;;;;;;4384754;32;20081;-65
2023/02/13 09:40:43;;;;;;;0.55;0.55;;;8.10;99.90;;;;;;4392350;32;20116;-65
2023/02/13 09:43:21;;;;;;;0.65;0.65;;;8.10;99.90;;;;;;4377672;32;20114;-65
2023/02/13 09:45:50;;;;;;;7.10;1.00;;;8.20;99.90;;;;;;4393847;32;20221;-66
2023/02/13 09:48:26;;;;;;;3.15;1.48;;;8.20;99.90;;;;;;4391357;32;20706;-65
2023/02/13 09:50:52;;;;;;;0.70;0.40;;;8.20;99.90;;;;;;4391442;32;20085;-67
2023/02/13 09:53:22;;;;;;;0.57;0.57;;;8.20;99.90;;;;;;4390326;32;20604;-68
2023/02/13 09:56:05;;;;;;;2.90;0.90;;;8.20;99.90;;;;;;4393468;32;20531;-65
2023/02/13 09:58:58;;;;;;;10.55;2.25;;;8.20;99.90;;;;;;4384316;32;20093;-65
2023/02/13 10:01:36;;;;;;;1.85;0.95;;;8.20;99.90;;;;;;4379007;32;21098;-67
2023/02/13 10:04:14;;;;;;;0.60;0.60;;;8.10;99.90;;;;;;4387960;32;20109;-65
2023/02/13 10:06:51;;;;;;;1.40;1.30;;;8.10;99.90;;;;;;4392713;32;20164;-65
2023/02/13 10:09:47;;;;;;;0.50;0.50;;;8.10;99.90;;;;;;4399421;32;20150;-66
2023/02/13 10:12:22;;;;;;;0.68;0.68;;;8.10;99.90;;;;;;4379700;32;20097;-64
2023/02/13 10:15:13;;;;;;;11.38;0.85;;;8.10;99.90;;;;;;4391714;32;20229;-64
2023/02/13 10:17:43;;;;;;;0.82;0.82;;;8.10;99.90;;;;;;4377221;32;20097;-66
2023/02/13 10:20:31;;;;;;;1.03;0.97;;;8.20;99.90;;;;;;4388003;32;20288;-66
2023/02/13 10:23:11;;;;;;;2.40;1.05;;;8.10;99.90;;;;;;4351757;32;20231;-67
2023/02/13 10:25:49;;;;;;;0.40;0.40;;;8.10;99.90;;;;;;4369599;32;20367;-66
2023/02/13 10:28:26;;;;;;;0.88;0.88;;;8.20;99.90;;;;;;4371989;32;22115;-66
2023/02/13 10:30:55;;;;;;;2.53;0.90;;;8.20;99.90;;;;;;4383475;32;20377;-66
2023/02/13 10:33:27;;;;;;;0.90;0.90;;;8.20;99.90;;;;;;4384008;32;20061;-66
2023/02/13 10:36:04;;;;;;;0.65;0.65;;;8.10;99.90;;;;;;4392980;32;21428;-67
2023/02/13 10:38:31;;;;;;;8.57;3.10;;;8.20;99.90;;;;;;4389532;32;20134;-65
2023/02/13 10:41:34;;;;;;;0.50;0.50;;;8.30;99.90;;;;;;4389584;32;21165;-67
2023/02/13 10:44:20;;;;;;;5.10;1.08;;;8.40;99.90;;;;;;4387141;32;20175;-67
2023/02/13 10:47:16;;;;;;;0.70;0.70;;;8.40;99.90;;;;;;4383279;32;20121;-66
2023/02/13 10:50:14;;;;;;;1.30;1.08;;;8.40;99.90;;;;;;4398796;32;20089;-65
2023/02/13 10:53:07;;;;;;;0.50;0.50;;;8.50;99.90;;;;;;4386555;32;20101;-66
2023/02/13 10:55:54;;;;;;;2.15;0.88;;;8.40;99.90;;;;;;4393478;32;20474;-66
2023/02/13 10:58:30;;;;;;;2.08;0.88;;;8.40;99.90;;;;;;4397238;32;20117;-65
2023/02/13 11:01:04;;;;;;;0.50;0.50;;;8.40;99.90;;;;;;4391810;32;20595;-66
2023/02/13 11:03:29;;;;;;;0.75;0.75;;;8.40;99.90;;;;;;4385096;32;20183;-66
2023/02/13 11:05:57;;;;;;;0.77;0.50;;;8.40;99.90;;;;;;4382848;32;22150;-66
2023/02/13 11:08:29;;;;;;;1.30;0.95;;;8.40;99.90;;;;;;4391403;32;20519;-66
2023/02/13 11:10:54;;;;;;;0.80;0.80;;;8.30;99.90;;;;;;4399916;32;20092;-66
2023/02/13 11:13:23;;;;;;;1.48;0.60;;;8.30;99.90;;;;;;4393009;32;20109;-66
2023/02/13 11:16:09;;;;;;;0.70;0.70;;;8.30;99.90;;;;;;4383302;32;20094;-66
2023/02/13 11:18:39;;;;;;;1.00;0.90;;;8.30;99.90;;;;;;4366307;32;21181;-66
2023/02/13 11:21:09;;;;;;;0.40;0.40;;;8.30;99.90;;;;;;4395213;32;20259;-65
2023/02/13 11:23:39;;;;;;;0.70;0.70;;;8.40;99.90;;;;;;4388270;32;20092;-68
2023/02/13 11:26:09;;;;;;;0.70;0.50;;;8.40;99.90;;;;;;4410432;32;20388;-68
2023/02/13 11:28:46;;;;;;;0.50;0.50;;;8.50;99.90;;;;;;4411861;32;20162;-68
2023/02/13 11:31:30;;;;;;;0.57;0.57;;;8.60;99.90;;;;;;4413349;32;20098;-66
2023/02/13 11:33:57;;;;;;;0.30;0.30;;;8.60;99.90;;;;;;4413366;32;20070;-65
2023/02/13 11:36:29;;;;;;;0.75;0.75;;;8.70;99.90;;;;;;4412660;32;20442;-67
2023/02/13 11:39:03;;;;;;;1.52;0.98;;;8.70;99.90;;;;;;4415911;32;20100;-69
2023/02/13 11:41:35;;;;;;;0.40;0.40;;;8.50;99.90;;;;;;4410995;32;20366;-68
2023/02/13 11:44:03;;;;;;;0.47;0.47;;;8.50;99.90;;;;;;4414894;32;102198;-69
2023/02/13 11:46:42;;;;;;;1.35;0.50;;;8.50;99.90;;;;;;4419101;32;20121;-68
2023/02/13 11:49:17;;;;;;;4.07;0.88;;;8.50;99.90;;;;;;4415880;32;20088;-68
2023/02/13 11:51:46;;;;;;;0.68;0.68;;;8.50;99.90;;;;;;4412311;32;20527;-68
2023/02/13 11:54:40;;;;;;;0.60;0.60;;;8.50;99.90;;;;;;4388219;32;20223;-66
2023/02/13 11:57:31;;;;;;;0.75;0.75;;;8.60;99.90;;;;;;4373662;32;20846;-65
2023/02/13 11:59:58;;;;;;;0.77;0.77;;;8.60;99.90;;;;;;4372332;32;21894;-67
2023/02/13 12:02:27;;;;;;;1.98;0.93;;;8.70;99.90;;;;;;4394928;32;20512;-68
2023/02/13 12:05:18;;;;;;;2.53;0.40;;;8.70;99.90;;;;;;4397448;32;20462;-69
2023/02/13 12:07:45;;;;;;;1.52;1.15;;;8.70;99.90;;;;;;4396357;32;20199;-68
2023/02/13 12:10:21;;;;;;;0.77;0.75;;;8.70;99.90;;;;;;4397693;32;20670;-68
2023/02/13 12:12:56;;;;;;;1.27;0.90;;;8.70;99.90;;;;;;4392325;32;20106;-67
2023/02/13 12:15:27;;;;;;;1.92;0.95;;;8.60;99.90;;;;;;4397246;32;20154;-67
2023/02/13 12:18:15;;;;;;;0.50;0.50;;;8.70;99.90;;;;;;4378940;32;21217;-68
2023/02/13 12:20:53;;;;;;;1.25;0.77;;;8.70;99.90;;;;;;4392169;32;20093;-68
2023/02/13 12:23:58;;;;;;;2.28;0.75;;;8.60;99.90;;;;;;4395851;32;20109;-66
2023/02/13 12:26:37;;;;;;;0.90;0.77;;;8.60;99.90;;;;;;4377076;32;20093;-67
2023/02/13 12:29:34;;;;;;;0.62;0.60;;;8.70;99.90;;;;;;4392811;32;20157;-66
2023/02/13 12:32:19;;;;;;;1.10;0.80;;;8.70;99.90;;;;;;4370514;32;21051;-67
2023/02/13 12:35:21;;;;;;;0.88;0.73;;;8.70;99.90;;;;;;4370420;32;20571;-68
2023/02/13 12:37:59;;;;;;;1.17;0.75;;;8.70;99.90;;;;;;4382572;32;20114;-67
2023/02/13 12:40:35;;;;;;;1.02;0.93;;;8.60;99.90;;;;;;4388840;32;20508;-67
2023/02/13 12:43:17;;;;;;;2.60;1.17;;;8.60;99.90;;;;;;4379737;32;20847;-67
2023/02/13 12:46:00;;;;;;;1.90;0.60;;;8.60;99.90;;;;;;4374945;32;21777;-69
2023/02/13 12:48:46;;;;;;;0.40;0.40;;;8.60;99.90;;;;;;4384954;32;20151;-66
2023/02/13 12:51:38;;;;;;;0.70;0.70;;;8.80;99.90;;;;;;4384000;32;20504;-66
2023/02/13 12:54:18;;;;;;;1.58;0.77;;;8.80;99.90;;;;;;4385630;32;20088;-67
2023/02/13 12:57:11;;;;;;;0.50;0.50;;;8.80;99.90;;;;;;4378259;32;20134;-66
2023/02/13 13:00:06;;;;;;;1.67;0.80;;;8.90;99.90;;;;;;4381466;32;20142;-66
2023/02/13 13:02:41;;;;;;;0.50;0.50;;;8.80;99.90;;;;;;4382431;32;21444;-67
2023/02/13 13:05:46;;;;;;;0.70;0.70;;;8.90;99.90;;;;;;4400207;32;20091;-66
2023/02/13 13:08:31;;;;;;;1.35;0.73;;;8.90;99.90;;;;;;4393406;32;20512;-68
2023/02/13 13:11:06;;;;;;;1.48;0.73;;;8.90;99.90;;;;;;4390644;32;20104;-66
2023/02/13 13:14:00;;;;;;;0.62;0.62;;;8.90;99.90;;;;;;4402206;32;20852;-68
2023/02/13 13:16:44;;;;;;;0.45;0.45;;;8.90;99.90;;;;;;4388604;32;20085;-66
2023/02/13 13:19:30;;;;;;;1.45;0.93;;;8.90;99.90;;;;;;4393213;32;20203;-67
2023/02/13 13:22:07;;;;;;;0.60;0.60;;;8.90;99.90;;;;;;4376755;32;20105;-65
2023/02/13 13:24:48;;;;;;;0.90;0.60;;;8.90;99.90;;;;;;4390432;32;20106;-66
2023/02/13 13:27:22;;;;;;;1.37;0.95;;;8.70;99.90;;;;;;4389315;32;20687;-67
2023/02/13 13:29:56;;;;;;;0.47;0.45;;;8.70;99.90;;;;;;4390937;32;20605;-66
2023/02/13 13:32:24;;;;;;;4.28;1.05;;;8.70;99.90;;;;;;4376448;32;20081;-67
2023/02/13 13:34:51;;;;;;;3.22;1.05;;;8.70;99.90;;;;;;4385033;32;21338;-66
2023/02/13 13:37:27;;;;;;;0.80;0.80;;;8.70;99.90;;;;;;4386410;32;20478;-66
2023/02/13 13:40:18;;;;;;;0.40;0.40;;;8.70;99.90;;;;;;4402788;32;20094;-68